Portada
METAR-TAF:

METAR-TAF

Aeroports :

Leticia, Colòmbia

latitud: 04-10S, longitud: 069-57W, altitud: 84 m

Observació

L'informe es va fer fa 50 minuts, a les 15:00 UTC
Vent 2 kt amb direcció variable
Temperatura 31°C
Humitat 59%
Pressió 1016 hPa
Visibilitat 10 km o més
sense núvols per sota de 1500 mi sense presència de cumulonimbus.

METAR: SKLT 051500Z VRB02KT CAVOK 31/22 A3000

Hora: 10:50 (15:50 UTC)

Pronòstic

L'informe es va fer fa 5 hores i 20 minuts, a les 10:30 UTC
Pronòstic vàlid del 05 a les 12 UTC al 06 a les 12 UTC
Vent 2 kt amb direcció variable
Visibilitat 10 km o més
Escasses núvols a una alçada de 1400 ft
Núvols disperses a una alçada de 10000 ft

TAF: SKLT 051030Z 0512/0612 VRB02KT 9999 FEW014 SCT100 TX33/0519Z TN18/0610Z

Observacions i pronòstics meteorològics de més de 4000 aeroports (METAR i TAF).

Les estacions disponibles són els punts grocs i vermells al mapa.

Posi el ratolí al punt desitjat per veure el nom de l'estació.

Feu clic per veure les observacions i els pronòstics meteorològics.

Per canviar el mapa: feu clic els botons verds amb una creu de color negre per apropar; al botó verd amb un guió per allunyar la imatge; o en les fletxes verdes per a mapes adjacents.


METAR-TAF: